Time;durP1;ratioP1;P1;durP2;ratioP2;P2;SDS_P1;SDS_P2;PMS_P1;PMS_P2;Temp;Humidity;BMP_temperature;BMP_pressure;BME280_temperature;BME280_humidity;BME280_pressure;Samples;Min_cycle;Max_cycle;Signal;HPM_P1;HPM_P2
2022/09/06 00:01:27;;;;;;;7.63;6.50;;;;;;;29.55;67.16;100723.56;5079569;28;70132;-31
2022/09/06 00:03:59;;;;;;;8.82;6.07;;;;;;;29.71;66.78;100742.03;5074527;28;66782;-31
2022/09/06 00:06:31;;;;;;;;;;;;;;;29.46;71.32;100760.00;5074784;28;70785;-31
2022/09/06 00:09:05;;;;;;;9.80;6.05;;;;;;;29.76;68.19;100771.94;5078218;27;66479;-30
2022/09/06 00:11:38;;;;;;;11.45;5.93;;;;;;;29.81;67.74;100768.56;5074495;27;70859;-31
2022/09/06 00:14:11;;;;;;;9.27;5.57;;;;;;;29.89;67.66;100783.72;5077870;28;67416;-32
2022/09/06 00:16:42;;;;;;;;;;;;;;;29.57;71.50;100789.06;5074022;28;70179;-31
2022/09/06 00:19:14;;;;;;;6.35;5.78;;;;;;;29.88;68.84;100801.00;5075808;28;66530;-32
2022/09/06 00:21:46;;;;;;;8.25;4.80;;;;;;;29.79;68.29;100782.34;5078259;28;70217;-30
2022/09/06 00:24:19;;;;;;;7.30;5.55;;;;;;;29.97;69.02;100813.22;5072357;27;66699;-30
2022/09/06 00:26:50;;;;;;;;;;;;;;;29.68;74.05;100814.63;5079191;27;70716;-31
2022/09/06 00:29:22;;;;;;;5.63;5.05;;;;;;;29.80;69.23;100792.09;5073982;28;65772;-31
2022/09/06 00:31:55;;;;;;;5.93;5.53;;;;;;;29.95;68.90;100813.47;5072211;27;70176;-35
2022/09/06 00:34:27;;;;;;;;;;;;;;;29.71;71.93;100827.72;5078426;28;66424;-30
2022/09/06 00:36:59;;;;;;;9.10;5.25;;;;;;;29.87;68.90;100805.59;5078984;27;70856;-31
2022/09/06 00:39:31;;;;;;;6.05;5.43;;;;;;;30.08;69.10;100834.19;5073940;28;66953;-33
2022/09/06 00:42:08;;;;;;;5.35;4.88;;;;;;;30.13;68.84;100839.78;5077927;28;70854;-32
2022/09/06 00:44:40;;;;;;;8.50;4.97;;;;;;;30.07;68.44;100827.13;5075589;28;66678;-33
2022/09/06 00:47:12;;;;;;;5.75;4.60;;;;;;;30.15;68.12;100840.41;5072583;28;70947;-31
2022/09/06 00:49:49;;;;;;;6.75;4.65;;;;;;;30.17;68.12;100840.16;5079143;27;65940;-32
2022/09/06 00:52:23;;;;;;;4.88;4.38;;;;;;;30.19;68.02;100849.72;5067392;28;70165;-31
2022/09/06 00:54:56;;;;;;;7.57;4.90;;;;;;;30.19;68.09;100852.44;5069899;28;67160;-31
2022/09/06 00:57:30;;;;;;;7.18;4.72;;;;;;;30.21;67.59;100855.78;5077938;28;70817;-31
2022/09/06 01:00:07;;;;;;;6.22;4.85;;;;;;;29.78;67.71;100783.38;5072605;28;66974;-32
2022/09/06 01:02:39;;;;;;;4.55;4.15;;;;;;;30.21;67.57;100861.19;5075014;28;71361;-32
2022/09/06 01:05:12;;;;;;;10.57;4.35;;;;;;;30.21;67.90;100861.19;5079950;28;66443;-31
2022/09/06 01:08:02;;;;;;;5.75;5.00;;;;;;;30.20;67.70;100867.66;5077034;28;70960;-31
2022/09/06 01:11:24;;;;;;;5.78;4.65;;;;;;;30.04;67.60;100860.03;5079204;28;67246;-30
2022/09/06 01:14:09;;;;;;;5.20;4.70;;;;;;;30.22;67.45;100883.69;4978626;28;70189;-31
2022/09/06 01:17:05;;;;;;;6.10;4.53;;;;;;;30.26;66.94;100874.94;5070827;28;66936;-32
2022/09/06 01:20:22;;;;;;;4.45;4.15;;;;;;;30.03;68.21;100866.47;5075057;28;70106;-32
2022/09/06 01:23:16;;;;;;;4.40;3.90;;;;;;;29.71;66.99;100809.59;5016229;28;66958;-30
2022/09/06 01:26:22;;;;;;;5.47;4.38;;;;;;;30.21;66.87;100893.66;5072599;28;70727;-32
2022/09/06 01:28:54;;;;;;;7.30;4.25;;;;;;;30.31;66.64;100898.59;5073181;28;66872;-31
2022/09/06 01:32:21;;;;;;;5.72;4.25;;;;;;;30.16;67.56;100888.03;5079283;27;70130;-32
2022/09/06 01:35:04;;;;;;;6.28;4.03;;;;;;;30.27;66.92;100890.09;5052548;28;66862;-31
2022/09/06 01:37:37;;;;;;;4.85;4.35;;;;;;;30.36;66.86;100900.69;5077594;28;70962;-32
2022/09/06 01:40:09;;;;;;;5.13;3.75;;;;;;;30.38;66.64;100906.72;5070321;28;67253;-32
2022/09/06 01:42:45;;;;;;;5.25;4.03;;;;;;;30.04;65.91;100843.78;5077553;28;70065;-32
2022/09/06 01:45:20;;;;;;;4.93;4.53;;;;;;;30.43;66.20;100899.59;5075093;27;66980;-31
2022/09/06 01:48:12;;;;;;;4.80;4.20;;;;;;;30.28;66.11;100897.19;5077748;28;70728;-31
2022/09/06 01:51:03;;;;;;;7.72;4.68;;;;;;;30.34;66.52;100897.34;5073547;28;66245;-32
2022/09/06 01:53:44;;;;;;;6.00;4.15;;;;;;;30.42;66.37;100883.56;5076196;28;69815;-32
2022/09/06 01:56:45;;;;;;;4.43;4.03;;;;;;;30.45;65.62;100883.13;5072598;28;67162;-32
2022/09/06 01:59:46;;;;;;;5.95;4.75;;;;;;;30.06;66.28;100822.75;5069858;28;71353;-33
2022/09/06 02:02:31;;;;;;;5.60;4.97;;;;;;;30.43;65.74;100885.25;5077990;28;66884;-32
2022/09/06 02:05:21;;;;;;;4.57;4.18;;;;;;;30.53;65.43;100891.00;5078485;28;70674;-31
2022/09/06 02:08:16;;;;;;;4.97;4.45;;;;;;;30.54;65.72;100889.97;5073317;28;67469;-31
2022/09/06 02:11:02;;;;;;;5.20;4.43;;;;;;;30.55;65.65;100878.09;5070806;28;70139;-31
2022/09/06 02:13:49;;;;;;;5.10;4.20;;;;;;;30.09;65.47;100808.81;5077569;27;66638;-31
2022/09/06 02:16:26;;;;;;;6.20;4.47;;;;;;;30.62;65.10;100889.72;5076429;28;71022;-32
2022/09/06 02:19:19;;;;;;;5.97;4.22;;;;;;;30.59;65.28;100884.72;5077965;27;66648;-33
2022/09/06 02:21:53;;;;;;;4.93;4.53;;;;;;;30.23;65.17;100821.25;5076650;28;70313;-32
2022/09/06 02:24:30;;;;;;;4.70;4.30;;;;;;;30.19;65.07;100803.75;5078946;28;66444;-32
2022/09/06 02:27:03;;;;;;;4.80;4.35;;;;;;;30.71;65.24;100884.84;5075065;28;70548;-32
2022/09/06 02:29:36;;;;;;;4.50;4.20;;;;;;;30.62;64.85;100868.06;5079050;28;67668;-32
2022/09/06 02:32:07;;;;;;;;;;;;;;;30.42;65.97;100878.16;5070507;28;71054;-31
2022/09/06 02:34:41;;;;;;;4.70;4.30;;;;;;;30.71;64.92;100882.97;5071221;28;67136;-32
2022/09/06 02:37:15;;;;;;;6.75;4.95;;;;;;;30.36;64.59;100808.66;5068963;27;70682;-35
2022/09/06 02:39:47;;;;;;;5.25;4.65;;;;;;;30.80;65.01;100875.44;5070442;28;66983;-31
2022/09/06 02:42:22;;;;;;;9.73;4.93;;;;;;;30.83;64.95;100874.16;5075183;28;70358;-32
2022/09/06 02:44:54;;;;;;;4.97;4.55;;;;;;;30.84;65.00;100867.69;5073557;28;66891;-32
2022/09/06 02:47:26;;;;;;;5.60;4.30;;;;;;;30.75;64.53;100853.56;5074399;28;71307;-33
2022/09/06 02:49:59;;;;;;;5.13;4.43;;;;;;;30.89;64.55;100867.88;5075132;28;66996;-32
2022/09/06 02:52:32;;;;;;;4.60;4.20;;;;;;;30.90;64.29;100869.53;5068695;28;68424;-35
2022/09/06 02:55:05;;;;;;;7.57;4.30;;;;;;;30.83;64.29;100847.09;5065531;28;66633;-34
2022/09/06 02:57:37;;;;;;;7.85;4.55;;;;;;;30.95;64.27;100858.84;5078897;28;70493;-33
2022/09/06 03:00:10;;;;;;;4.43;4.13;;;;;;;30.97;64.45;100858.63;5078167;28;67506;-31
2022/09/06 03:02:42;;;;;;;5.55;5.03;;;;;;;31.00;64.68;100855.47;5075276;28;70600;-32
2022/09/06 03:05:14;;;;;;;5.82;4.28;;;;;;;30.98;64.45;100844.88;5078743;28;66367;-32
2022/09/06 03:07:47;;;;;;;6.97;3.75;;;;;;;31.03;64.05;100858.56;5075568;27;70907;-32
2022/09/06 03:10:19;;;;;;;4.38;3.97;;;;;;;30.76;64.04;100802.94;5068147;28;67717;-31
2022/09/06 03:12:52;;;;;;;5.60;4.00;;;;;;;31.08;64.36;100847.06;5065591;28;70865;-34
2022/09/06 03:15:24;;;;;;;3.97;3.67;;;;;;;31.07;64.14;100838.13;5069038;28;66262;-32
2022/09/06 03:17:58;;;;;;;4.63;3.75;;;;;;;30.67;63.81;100762.63;5074388;27;70567;-33
2022/09/06 03:20:31;;;;;;;4.55;4.13;;;;;;;31.14;64.12;100836.16;5065065;28;66348;-32
2022/09/06 03:23:06;;;;;;;4.65;4.22;;;;;;;31.19;63.73;100840.09;5065346;28;69986;-32
2022/09/06 03:25:39;;;;;;;4.95;3.70;;;;;;;30.92;63.99;100795.13;5070512;27;66476;-32
2022/09/06 03:28:11;;;;;;;3.67;3.42;;;;;;;31.23;63.69;100830.47;5072565;28;71111;-33
2022/09/06 03:30:48;;;;;;;4.70;3.72;;;;;;;31.26;63.68;100824.59;5075325;28;67111;-31
2022/09/06 03:33:21;;;;;;;4.22;3.92;;;;;;;31.22;63.46;100812.56;5078211;28;70286;-32
2022/09/06 03:35:59;;;;;;;3.72;3.42;;;;;;;31.31;63.58;100811.19;5075108;28;67089;-32
2022/09/06 03:38:31;;;;;;;4.13;3.45;;;;;;;31.21;63.64;100789.22;5074212;28;70426;-32
2022/09/06 03:41:03;;;;;;;3.60;3.30;;;;;;;31.33;63.87;100800.97;5077980;28;66708;-33
2022/09/06 03:43:35;;;;;;;5.38;3.78;;;;;;;31.13;63.57;100755.13;5078968;28;70916;-32
2022/09/06 03:46:07;;;;;;;3.95;3.47;;;;;;;31.29;63.64;100781.63;5078233;28;66436;-35
2022/09/06 03:48:40;;;;;;;3.38;3.17;;;;;;;31.29;63.68;100775.38;5072580;28;71134;-32
2022/09/06 03:51:12;;;;;;;3.88;3.20;;;;;;;31.41;63.23;100783.63;5073769;28;67071;-33
2022/09/06 03:53:44;;;;;;;3.38;3.17;;;;;;;31.31;63.36;100768.66;5073861;28;70379;-32
2022/09/06 03:56:17;;;;;;;5.68;3.22;;;;;;;31.43;63.32;100790.47;5075608;28;66624;-33
2022/09/06 03:58:49;;;;;;;8.45;3.33;;;;;;;31.39;62.96;100770.28;5074712;28;70854;-32
2022/09/06 04:01:21;;;;;;;3.70;3.40;;;;;;;31.45;63.40;100769.38;5076998;28;66097;-32
2022/09/06 04:03:53;;;;;;;3.53;3.17;;;;;;;31.50;63.35;100764.09;5081354;28;70226;-32
2022/09/06 04:06:26;;;;;;;2.90;2.70;;;;;;;31.52;63.21;100759.28;5076070;28;66915;-32
2022/09/06 04:08:59;;;;;;;3.28;2.97;;;;;;;31.53;62.87;100758.22;5077153;28;70097;-32
2022/09/06 04:11:31;;;;;;;4.00;3.40;;;;;;;31.55;63.37;100747.16;5078055;28;67014;-34
2022/09/06 04:14:03;;;;;;;3.35;3.08;;;;;;;31.57;62.91;100748.59;5042872;28;70896;-32
2022/09/06 04:16:35;;;;;;;4.20;3.10;;;;;;;31.57;62.87;100740.44;5081422;28;67165;-33
2022/09/06 04:19:08;;;;;;;3.25;2.95;;;;;;;31.53;62.82;100728.38;5077340;28;70220;-32
2022/09/06 04:21:40;;;;;;;3.63;3.03;;;;;;;31.57;63.10;100726.06;5074201;28;67539;-32
2022/09/06 04:24:12;;;;;;;3.10;2.90;;;;;;;31.61;63.12;100722.66;5079822;27;69895;-33
2022/09/06 04:26:44;;;;;;;4.35;2.75;;;;;;;31.68;62.82;100729.88;5076491;28;67229;-33
2022/09/06 04:29:16;;;;;;;3.42;3.13;;;;;;;31.68;63.03;100721.72;5075607;28;70684;-32
2022/09/06 04:31:48;;;;;;;3.50;3.22;;;;;;;31.70;62.82;100716.91;5079705;28;66324;-35
2022/09/06 04:34:21;;;;;;;3.22;2.85;;;;;;;31.63;62.58;100708.06;5073641;28;71030;-32
2022/09/06 04:36:53;;;;;;;2.92;2.72;;;;;;;31.74;63.00;100707.28;5079774;27;66866;-33
2022/09/06 04:39:25;;;;;;;3.00;2.67;;;;;;;31.74;62.72;100701.84;5074373;27;70509;-33
2022/09/06 04:41:57;;;;;;;7.00;3.22;;;;;;;31.75;63.13;100703.50;5078578;28;67389;-33
2022/09/06 04:44:29;;;;;;;4.40;2.80;;;;;;;31.75;63.25;100695.34;5076712;28;70595;-32
2022/09/06 04:47:11;;;;;;;7.68;3.10;;;;;;;31.34;62.79;100618.31;5078668;27;66708;-33
2022/09/06 04:49:44;;;;;;;4.93;2.67;;;;;;;31.74;63.11;100680.16;5078624;27;71057;-34
2022/09/06 04:52:17;;;;;;;2.70;2.50;;;;;;;31.77;63.08;100674.25;5067234;28;66598;-33
2022/09/06 04:54:49;;;;;;;3.33;3.03;;;;;;;31.73;62.90;100667.63;5073588;27;70245;-33
2022/09/06 04:57:21;;;;;;;2.90;2.60;;;;;;;31.78;63.31;100670.47;5077441;28;66881;-31
2022/09/06 04:59:53;;;;;;;3.70;2.70;;;;;;;31.79;63.40;100667.56;5078679;28;70760;-32
2022/09/06 05:02:26;;;;;;;3.20;2.90;;;;;;;31.74;63.20;100658.47;5079441;28;67075;-32
2022/09/06 05:04:58;;;;;;;4.63;2.80;;;;;;;31.70;62.92;100639.09;5076418;28;70678;-32
2022/09/06 05:07:30;;;;;;;3.00;2.70;;;;;;;31.81;63.06;100648.31;5063568;28;66801;-33
2022/09/06 05:10:03;;;;;;;3.13;2.83;;;;;;;31.85;63.04;100651.41;5067197;28;70493;-33
2022/09/06 05:12:35;;;;;;;3.78;2.47;;;;;;;31.74;63.23;100634.88;5079713;28;65787;-33
2022/09/06 05:15:13;;;;;;;6.55;2.65;;;;;;;31.86;63.46;100644.91;5069977;28;69438;-35
2022/09/06 05:17:46;;;;;;;3.17;2.60;;;;;;;31.88;63.14;100643.63;5069706;28;66979;-34
2022/09/06 05:20:18;;;;;;;3.42;2.28;;;;;;;31.89;63.02;100639.03;5074321;28;70334;-35
2022/09/06 05:22:53;;;;;;;3.10;2.22;;;;;;;31.91;63.18;100637.78;5075454;27;66805;-33
2022/09/06 05:25:25;;;;;;;5.22;2.22;;;;;;;31.91;63.05;100640.47;5080325;27;70799;-33
2022/09/06 05:27:58;;;;;;;3.15;2.42;;;;;;;31.84;63.23;100620.72;5076466;28;67560;-33
2022/09/06 05:30:30;;;;;;;4.10;2.65;;;;;;;31.94;62.90;100634.59;5077876;27;69948;-33
2022/09/06 05:33:01;;;;;;;;;;;;;;;31.65;63.97;100628.13;5074587;28;67774;-33
2022/09/06 05:35:33;;;;;;;4.63;2.40;;;;;;;31.91;62.98;100626.91;5078773;28;70469;-32
2022/09/06 05:38:05;;;;;;;2.60;2.40;;;;;;;31.96;62.89;100629.75;5076852;28;66563;-33
2022/09/06 05:40:38;;;;;;;2.60;2.40;;;;;;;31.97;62.81;100623.25;5072436;28;70579;-33
2022/09/06 05:43:10;;;;;;;3.90;2.58;;;;;;;31.99;63.21;100613.00;5078832;28;66955;-33
2022/09/06 05:45:44;;;;;;;2.75;2.42;;;;;;;32.00;62.92;100614.66;5076172;28;69815;-33
2022/09/06 05:48:18;;;;;;;2.20;2.00;;;;;;;32.01;62.89;100600.03;5076719;28;43377;-33
2022/09/06 05:50:59;;;;;;;;;;;;;;;31.73;64.02;100597.97;5077298;28;70863;-32
2022/09/06 05:53:58;;;;;;;2.43;2.00;;;;;;;31.88;63.60;100583.97;5077046;27;67353;-33
2022/09/06 05:56:30;;;;;;;2.38;2.15;;;;;;;32.01;62.85;100581.06;5077533;27;71439;-33
2022/09/06 05:59:03;;;;;;;2.28;2.08;;;;;;;32.01;62.98;100570.19;5076808;27;66294;-33
2022/09/06 06:01:35;;;;;;;2.63;2.20;;;;;;;31.90;62.66;100546.59;5079143;27;70582;-34
2022/09/06 06:04:08;;;;;;;2.50;2.15;;;;;;;32.08;62.73;100571.97;5078169;28;66987;-34
2022/09/06 06:06:40;;;;;;;2.13;1.98;;;;;;;32.07;62.74;100554.03;5077660;28;70286;-33
2022/09/06 06:09:13;;;;;;;2.78;2.03;;;;;;;32.12;62.67;100556.84;5079231;27;66626;-32
2022/09/06 06:11:45;;;;;;;2.50;2.30;;;;;;;32.12;63.06;100551.44;5068782;28;71893;-35
2022/09/06 06:14:17;;;;;;;2.03;1.90;;;;;;;32.15;62.91;100556.38;5077270;28;66929;-32
2022/09/06 06:16:50;;;;;;;4.25;2.50;;;;;;;32.16;62.31;100552.63;5077571;28;70149;-32
2022/09/06 06:19:22;;;;;;;2.33;2.00;;;;;;;32.12;62.48;100546.00;5076525;28;67034;-33
2022/09/06 06:21:57;;;;;;;3.88;2.40;;;;;;;32.20;62.46;100537.50;5069151;28;70991;-32
2022/09/06 06:24:29;;;;;;;3.00;2.30;;;;;;;32.21;62.28;100534.56;5073973;28;66886;-33
2022/09/06 06:27:01;;;;;;;2.35;2.15;;;;;;;32.20;62.71;100532.06;5076859;28;70280;-34
2022/09/06 06:29:34;;;;;;;3.58;2.22;;;;;;;32.16;62.53;100514.63;5073320;28;66547;-33
2022/09/06 06:32:06;;;;;;;2.63;1.95;;;;;;;32.25;62.80;100529.47;5076316;28;70232;-32
2022/09/06 06:34:38;;;;;;;2.35;2.15;;;;;;;32.27;62.43;100530.06;5076363;28;66866;-33
2022/09/06 06:37:10;;;;;;;2.53;2.10;;;;;;;32.16;62.45;100510.03;5076009;27;71110;-32
2022/09/06 06:39:42;;;;;;;2.25;1.80;;;;;;;32.28;62.20;100529.00;5076430;28;66993;-32
2022/09/06 06:42:15;;;;;;;4.47;2.05;;;;;;;32.30;62.43;100526.88;5070256;27;70879;-32
2022/09/06 06:44:54;;;;;;;3.97;2.17;;;;;;;32.21;62.23;100512.03;5072363;28;67020;-33
2022/09/06 06:47:26;;;;;;;3.38;1.67;;;;;;;32.31;62.18;100512.22;5073799;28;70151;-34
2022/09/06 06:49:58;;;;;;;2.35;2.08;;;;;;;32.35;62.18;100518.84;5072596;28;67006;-32
2022/09/06 06:52:31;;;;;;;5.25;2.55;;;;;;;32.36;61.79;100508.81;5073614;28;70713;-33
2022/09/06 06:55:04;;;;;;;8.23;2.78;;;;;;;32.38;62.21;100515.66;5072914;27;67044;-32
2022/09/06 06:57:37;;;;;;;10.00;3.30;;;;;;;32.40;62.02;100508.09;5073472;28;70854;-32
2022/09/06 07:00:10;;;;;;;14.85;3.47;;;;;;;32.44;61.87;100503.81;5076358;27;66824;-33
2022/09/06 07:02:42;;;;;;;13.93;3.00;;;;;;;32.44;61.73;100501.13;5080222;28;70840;-33
2022/09/06 07:05:18;;;;;;;15.75;3.38;;;;;;;32.47;61.85;100495.22;5076987;27;67086;-32
2022/09/06 07:08:10;;;;;;;8.02;2.95;;;;;;;32.49;61.99;100495.00;5077883;28;71035;-33
2022/09/06 07:10:42;;;;;;;14.80;3.55;;;;;;;32.51;61.75;100489.31;5078452;28;66036;-35
2022/09/06 07:13:15;;;;;;;11.20;3.17;;;;;;;32.51;61.60;100481.16;5076084;28;70526;-34
2022/09/06 07:15:47;;;;;;;15.73;3.45;;;;;;;32.55;61.29;100490.50;5073089;27;66658;-33
2022/09/06 07:18:19;;;;;;;11.95;3.25;;;;;;;32.54;61.66;100486.13;5079485;28;70812;-36
2022/09/06 07:20:51;;;;;;;10.55;3.30;;;;;;;32.59;61.26;100481.63;5079278;28;67237;-33
2022/09/06 07:23:44;;;;;;;12.05;3.20;;;;;;;32.47;61.39;100456.41;5074011;28;71471;-34
2022/09/06 07:26:38;;;;;;;11.65;3.58;;;;;;;32.49;61.30;100449.66;5075384;28;66803;-33
2022/09/06 07:29:10;;;;;;;9.10;3.08;;;;;;;32.65;61.44;100468.97;5074329;27;70124;-34
2022/09/06 07:31:42;;;;;;;9.27;3.42;;;;;;;32.67;61.30;100461.41;5074524;28;67012;-32
2022/09/06 07:34:36;;;;;;;7.35;2.80;;;;;;;32.70;61.41;100458.19;5078353;27;70557;-32
2022/09/06 07:37:09;;;;;;;6.78;3.28;;;;;;;32.69;61.25;100453.84;5076670;28;67028;-33
2022/09/06 07:39:41;;;;;;;6.32;3.88;;;;;;;32.74;60.96;100448.50;5077858;28;69959;-33
2022/09/06 07:42:15;;;;;;;8.63;3.53;;;;;;;32.72;61.38;100443.31;5076299;27;65930;-33
2022/09/06 07:44:47;;;;;;;11.88;3.15;;;;;;;32.72;61.16;100435.16;5075934;27;70289;-34
2022/09/06 07:47:19;;;;;;;6.35;2.90;;;;;;;32.79;61.02;100443.19;5076007;28;67225;-32
2022/09/06 07:50:11;;;;;;;3.67;2.65;;;;;;;32.68;60.67;100425.00;5074265;27;71236;-33
2022/09/06 07:53:06;;;;;;;;;;;;;;;32.57;61.62;100450.34;5077692;27;66108;-35
2022/09/06 07:55:47;;;;;;;6.68;3.03;;;;;;;32.78;60.91;100436.06;5068296;28;70473;-36
2022/09/06 07:58:19;;;;;;;7.60;3.42;;;;;;;32.79;61.38;100420.59;5080466;27;67050;-33
2022/09/06 08:00:51;;;;;;;4.38;3.00;;;;;;;32.91;60.86;100430.34;5074029;28;70370;-34
2022/09/06 08:03:23;;;;;;;4.45;2.75;;;;;;;32.85;60.86;100415.03;5069906;28;66344;-34
2022/09/06 08:05:55;;;;;;;4.78;2.88;;;;;;;32.62;60.78;100385.25;5077708;28;70205;-32
2022/09/06 08:08:43;;;;;;;3.28;2.90;;;;;;;32.99;60.75;100431.00;5073575;28;65999;-34
2022/09/06 08:11:32;;;;;;;4.45;2.80;;;;;;;32.66;60.57;100373.69;5069015;27;70224;-34
2022/09/06 08:14:07;;;;;;;4.40;2.65;;;;;;;32.28;60.58;100311.88;5078705;28;67000;-34
2022/09/06 08:16:39;;;;;;;7.90;3.72;;;;;;;32.97;60.51;100423.09;5070265;27;70974;-34
2022/09/06 08:19:13;;;;;;;6.85;2.70;;;;;;;33.09;60.34;100436.66;5077377;28;67151;-32
2022/09/06 08:21:45;;;;;;;8.77;3.22;;;;;;;33.00;60.22;100419.09;5074365;28;71003;-34
2022/09/06 08:24:21;;;;;;;5.97;3.17;;;;;;;33.06;60.42;100431.69;5076552;27;66941;-33
2022/09/06 08:26:53;;;;;;;4.15;2.92;;;;;;;33.17;60.22;100454.44;5080692;28;70310;-32
2022/09/06 08:29:26;;;;;;;4.82;3.22;;;;;;;33.19;60.09;100458.56;5080264;28;66979;-32
2022/09/06 08:32:02;;;;;;;8.52;3.33;;;;;;;33.21;60.20;100467.31;5080966;28;72086;-32
2022/09/06 08:34:34;;;;;;;5.63;3.00;;;;;;;33.25;59.57;100462.19;5079426;28;66523;-32
2022/09/06 08:37:07;;;;;;;7.80;3.03;;;;;;;33.26;60.04;100463.81;5072659;28;71034;-33
2022/09/06 08:39:39;;;;;;;6.72;3.30;;;;;;;33.30;59.89;100470.44;5071463;28;66980;-32
2022/09/06 08:42:12;;;;;;;6.63;3.33;;;;;;;33.30;59.79;100471.25;5075498;27;70042;-34
2022/09/06 08:44:52;;;;;;;12.18;3.13;;;;;;;33.32;60.12;100501.75;5074204;28;66118;-33
2022/09/06 08:47:29;;;;;;;12.20;3.33;;;;;;;33.27;59.63;100482.63;5078595;27;70740;-33
2022/09/06 08:50:05;;;;;;;5.43;2.80;;;;;;;33.07;59.55;100444.22;5077757;28;66553;-32
2022/09/06 08:53:06;;;;;;;9.93;3.63;;;;;;;33.29;59.60;100485.94;5073185;28;70716;-33
2022/09/06 08:56:22;;;;;;;9.88;4.18;;;;;;;33.40;59.22;100505.94;5075566;27;66600;-33
2022/09/06 08:59:06;;;;;;;6.80;2.83;;;;;;;33.30;59.54;100467.72;5079394;28;70882;-33
2022/09/06 09:01:52;;;;;;;11.32;3.47;;;;;;;33.29;59.09;100458.75;5074812;28;66930;-33
2022/09/06 09:04:29;;;;;;;6.25;3.53;;;;;;;32.75;59.63;100346.94;5081279;27;70543;-33
2022/09/06 09:07:18;;;;;;;6.75;3.58;;;;;;;33.37;59.40;100466.47;5066385;28;66215;-33
2022/09/06 09:09:54;;;;;;;13.57;3.85;;;;;;;33.38;59.74;100464.59;5077101;27;69917;-34
2022/09/06 09:12:29;;;;;;;9.77;3.72;;;;;;;33.47;59.37;100473.16;5078880;28;66207;-32
2022/09/06 09:15:08;;;;;;;7.88;3.67;;;;;;;33.52;59.31;100470.53;5073851;28;71104;-33
2022/09/06 09:17:42;;;;;;;7.60;3.70;;;;;;;33.56;59.43;100461.63;5077390;28;66481;-36
2022/09/06 09:20:14;;;;;;;6.65;3.15;;;;;;;33.57;59.39;100460.56;5078721;27;70096;-33
2022/09/06 09:22:47;;;;;;;11.05;3.65;;;;;;;33.52;61.01;100446.03;5070544;27;66217;-35
2022/09/06 09:25:23;;;;;;;8.52;4.60;;;;;;;33.36;60.56;100447.69;5075570;27;71244;-32
2022/09/06 09:27:56;;;;;;;14.48;4.50;;;;;;;33.36;61.45;100456.66;5078033;28;66893;-33
2022/09/06 09:30:52;;;;;;;9.07;5.15;;;;;;;33.20;62.38;100473.78;5075932;28;70752;-33
2022/09/06 09:33:34;;;;;;;9.40;4.47;;;;;;;33.15;63.07;100495.44;5076825;28;66153;-32
2022/09/06 09:36:13;;;;;;;11.80;4.57;;;;;;;33.06;63.47;100524.91;5071577;28;70237;-32
2022/09/06 09:38:51;;;;;;;9.10;4.20;;;;;;;32.58;63.95;100471.00;5074656;28;65937;-32
2022/09/06 09:41:29;;;;;;;4.78;4.38;;;;;;;32.96;64.10;100534.72;5076645;28;69703;-32
2022/09/06 09:44:27;;;;;;;5.78;4.32;;;;;;;32.85;64.48;100534.56;5073410;28;67052;-33
2022/09/06 09:46:59;;;;;;;7.95;3.83;;;;;;;32.83;65.17;100530.44;5077137;27;70714;-33
2022/09/06 09:49:32;;;;;;;4.45;3.75;;;;;;;32.85;65.41;100550.84;5079233;28;67090;-32
2022/09/06 09:52:13;;;;;;;3.97;3.58;;;;;;;32.77;65.74;100575.69;5071371;28;70553;-31
2022/09/06 09:54:46;;;;;;;6.43;3.63;;;;;;;32.79;65.69;100597.16;5070608;28;66384;-32
2022/09/06 09:57:19;;;;;;;4.95;4.30;;;;;;;32.78;65.49;100593.63;5079962;28;70561;-32
2022/09/06 10:00:02;;;;;;;7.88;3.90;;;;;;;32.64;65.77;100581.38;5073398;28;66581;-33
2022/09/06 10:02:39;;;;;;;6.18;3.45;;;;;;;32.64;66.00;100570.50;5077326;28;70838;-32
2022/09/06 10:05:11;;;;;;;8.82;4.00;;;;;;;32.71;65.72;100587.50;5074088;28;66866;-33
2022/09/06 10:07:56;;;;;;;4.50;3.67;;;;;;;32.57;65.92;100575.25;5075268;28;70323;-32
2022/09/06 10:10:45;;;;;;;11.35;3.63;;;;;;;32.67;66.00;100602.63;5078804;28;66564;-34
2022/09/06 10:13:29;;;;;;;3.65;3.35;;;;;;;32.62;66.02;100605.22;5074952;28;70706;-32
2022/09/06 10:16:04;;;;;;;6.22;3.00;;;;;;;32.63;66.39;100606.88;5077200;28;67109;-33
2022/09/06 10:18:38;;;;;;;3.25;3.00;;;;;;;32.62;65.99;100605.22;5072199;28;70573;-31
2022/09/06 10:21:24;;;;;;;6.25;3.15;;;;;;;32.62;66.03;100599.78;5077597;28;66813;-33
2022/09/06 10:24:07;;;;;;;4.75;3.45;;;;;;;32.58;66.08;100609.50;5069432;28;70497;-33
2022/09/06 10:27:02;;;;;;;8.38;2.88;;;;;;;32.49;66.43;100618.00;5076085;28;66005;-32
2022/09/06 10:29:51;;;;;;;4.07;3.42;;;;;;;32.11;66.22;100571.50;5074920;28;70172;-32
2022/09/06 10:32:46;;;;;;;13.45;2.97;;;;;;;31.73;66.39;100515.78;5071575;28;67416;-31
2022/09/06 10:35:31;;;;;;;3.88;2.72;;;;;;;32.33;66.38;100634.16;5076802;27;70751;-32
2022/09/06 10:38:21;;;;;;;5.45;3.17;;;;;;;32.46;67.01;100661.91;5080938;28;67171;-33
2022/09/06 10:40:56;;;;;;;4.10;3.65;;;;;;;32.42;66.99;100676.97;5085550;28;70461;-32
2022/09/06 10:43:44;;;;;;;3.63;3.25;;;;;;;32.41;67.33;100679.94;5083310;28;67037;-32
2022/09/06 10:46:21;;;;;;;8.30;5.47;;;;;;;32.36;67.86;100669.78;5083687;28;68684;-31
2022/09/06 10:48:54;;;;;;;10.25;5.05;;;;;;;32.37;68.20;100668.72;5079681;28;66272;-33
2022/09/06 10:51:44;;;;;;;6.75;4.90;;;;;;;31.92;68.80;100617.72;5083682;28;70828;-32
2022/09/06 10:54:22;;;;;;;6.35;4.70;;;;;;;31.94;68.89;100626.44;5075383;28;67073;-33
2022/09/06 10:57:02;;;;;;;5.18;4.30;;;;;;;32.36;69.48;100694.22;5077554;27;70865;-33
2022/09/06 10:59:42;;;;;;;6.28;4.28;;;;;;;31.92;69.71;100625.03;5086186;27;65875;-32
2022/09/06 11:02:16;;;;;;;5.28;3.58;;;;;;;32.34;70.66;100699.03;5085509;27;70755;-31
2022/09/06 11:04:50;;;;;;;6.72;3.67;;;;;;;32.36;70.94;100710.50;5082599;27;67231;-32
2022/09/06 11:07:45;;;;;;;3.50;3.05;;;;;;;32.18;70.99;100691.59;5081780;28;70708;-31
2022/09/06 11:10:44;;;;;;;3.55;3.25;;;;;;;32.34;71.15;100722.66;5083204;28;66417;-33
2022/09/06 11:13:19;;;;;;;6.35;2.88;;;;;;;31.81;70.72;100627.44;5083759;28;70773;-31
2022/09/06 11:16:03;;;;;;;3.50;3.25;;;;;;;31.91;71.06;100643.19;5081170;28;66008;-32
2022/09/06 11:18:46;;;;;;;4.72;3.08;;;;;;;32.28;71.88;100713.56;5082429;28;70634;-32
2022/09/06 11:21:46;;;;;;;9.68;3.25;;;;;;;32.28;71.80;100735.28;5080899;28;66795;-33
2022/09/06 11:24:45;;;;;;;4.43;3.20;;;;;;;32.21;71.92;100748.13;5083192;28;70214;-34
2022/09/06 11:27:38;;;;;;;4.00;3.15;;;;;;;32.21;71.80;100764.44;5078372;28;66171;-33
2022/09/06 11:30:15;;;;;;;3.30;2.33;;;;;;;31.79;70.99;100688.44;5080106;28;70427;-33
2022/09/06 11:33:21;;;;;;;7.05;2.30;;;;;;;31.74;70.74;100685.56;5085028;27;66849;-32
2022/09/06 11:36:13;;;;;;;3.10;2.65;;;;;;;32.23;70.09;100773.13;5083072;27;69467;-34
2022/09/06 11:38:57;;;;;;;2.92;2.13;;;;;;;32.19;70.18;100790.97;5080271;28;66827;-33
2022/09/06 11:41:37;;;;;;;3.60;2.20;;;;;;;31.83;69.89;100744.69;5083223;28;71001;-32
2022/09/06 11:44:10;;;;;;;2.85;2.03;;;;;;;32.20;69.64;100820.56;5080702;28;66793;-33
2022/09/06 11:46:42;;;;;;;5.75;2.40;;;;;;;32.21;69.58;100832.28;5077766;27;69941;-32
2022/09/06 11:49:36;;;;;;;4.75;2.10;;;;;;;31.71;69.54;100767.41;5077677;28;67207;-34
2022/09/06 11:52:49;;;;;;;3.20;2.08;;;;;;;32.06;69.78;100819.09;5073564;28;70832;-32
2022/09/06 11:55:29;;;;;;;2.17;1.80;;;;;;;32.02;69.09;100786.19;5058139;27;66822;-35
2022/09/06 11:58:26;;;;;;;2.28;2.00;;;;;;;31.72;69.32;100722.94;5079804;28;70035;-33
2022/09/06 12:01:17;;;;;;;5.72;2.22;;;;;;;32.05;69.39;100804.72;5068992;28;66492;-32
2022/09/06 12:03:54;;;;;;;2.43;2.03;;;;;;;32.09;68.79;100813.22;5079501;28;70030;-35
2022/09/06 12:07:03;;;;;;;3.00;2.60;;;;;;;31.72;69.04;100752.78;5074607;28;66183;-34
2022/09/06 12:09:42;;;;;;;7.20;3.53;;;;;;;31.75;69.26;100768.59;5079684;28;70864;-33
2022/09/06 12:12:38;;;;;;;3.67;3.38;;;;;;;31.82;69.58;100799.16;5077386;27;67168;-33
2022/09/06 12:15:59;;;;;;;3.38;3.08;;;;;;;31.82;69.67;100801.88;5076192;28;70905;-32
2022/09/06 12:18:47;;;;;;;3.10;2.90;;;;;;;31.79;69.52;100808.59;5072503;28;67417;-32